sensor_id;sensor_type;location;lat;lon;timestamp;temperature;humidity
17489;DHT22;8861;52.644;4.734;2023-06-10T00:00:50;19.70;99.90
17489;DHT22;8861;52.644;4.734;2023-06-10T00:03:17;19.60;99.90
17489;DHT22;8861;52.644;4.734;2023-06-10T00:05:44;19.60;99.90
17489;DHT22;8861;52.644;4.734;2023-06-10T00:08:11;19.60;99.90
17489;DHT22;8861;52.644;4.734;2023-06-10T00:10:42;19.60;99.90
17489;DHT22;8861;52.644;4.734;2023-06-10T00:13:09;19.50;99.90
17489;DHT22;8861;52.644;4.734;2023-06-10T00:15:37;19.50;99.90
17489;DHT22;8861;52.644;4.734;2023-06-10T00:18:04;19.50;99.90
17489;DHT22;8861;52.644;4.734;2023-06-10T00:20:31;19.50;99.90
17489;DHT22;8861;52.644;4.734;2023-06-10T00:22:58;19.50;99.90
17489;DHT22;8861;52.644;4.734;2023-06-10T00:25:26;19.50;99.90
17489;DHT22;8861;52.644;4.734;2023-06-10T00:27:55;19.40;99.90
17489;DHT22;8861;52.644;4.734;2023-06-10T00:30:22;19.40;99.90
17489;DHT22;8861;52.644;4.734;2023-06-10T00:32:49;19.40;99.90
17489;DHT22;8861;52.644;4.734;2023-06-10T00:35:16;19.40;99.90
17489;DHT22;8861;52.644;4.734;2023-06-10T00:37:43;19.40;99.90
17489;DHT22;8861;52.644;4.734;2023-06-10T00:40:10;19.40;99.90
17489;DHT22;8861;52.644;4.734;2023-06-10T00:42:37;19.40;99.90
17489;DHT22;8861;52.644;4.734;2023-06-10T00:45:06;19.30;99.90
17489;DHT22;8861;52.644;4.734;2023-06-10T00:47:34;19.30;99.90
17489;DHT22;8861;52.644;4.734;2023-06-10T00:50:02;19.30;99.90
17489;DHT22;8861;52.644;4.734;2023-06-10T00:52:30;19.30;99.90
17489;DHT22;8861;52.644;4.734;2023-06-10T00:54:57;19.30;99.90
17489;DHT22;8861;52.644;4.734;2023-06-10T00:57:24;19.20;99.90
17489;DHT22;8861;52.644;4.734;2023-06-10T00:59:52;19.30;99.90
17489;DHT22;8861;52.644;4.734;2023-06-10T01:02:20;19.30;99.90
17489;DHT22;8861;52.644;4.734;2023-06-10T01:04:47;19.20;99.90
17489;DHT22;8861;52.644;4.734;2023-06-10T01:07:19;19.20;99.90
17489;DHT22;8861;52.644;4.734;2023-06-10T01:09:52;19.20;99.90
17489;DHT22;8861;52.644;4.734;2023-06-10T01:12:28;19.20;99.90
17489;DHT22;8861;52.644;4.734;2023-06-10T01:14:56;19.20;99.90
17489;DHT22;8861;52.644;4.734;2023-06-10T01:17:25;19.20;99.90
17489;DHT22;8861;52.644;4.734;2023-06-10T01:19:54;19.20;99.90
17489;DHT22;8861;52.644;4.734;2023-06-10T01:22:24;19.20;99.90
17489;DHT22;8861;52.644;4.734;2023-06-10T01:24:52;19.10;99.90
17489;DHT22;8861;52.644;4.734;2023-06-10T01:27:21;19.10;99.90
17489;DHT22;8861;52.644;4.734;2023-06-10T01:29:54;19.10;99.90
17489;DHT22;8861;52.644;4.734;2023-06-10T01:32:31;19.10;99.90
17489;DHT22;8861;52.644;4.734;2023-06-10T01:35:01;19.10;99.90
17489;DHT22;8861;52.644;4.734;2023-06-10T01:37:31;19.10;99.90
17489;DHT22;8861;52.644;4.734;2023-06-10T01:39:59;19.00;99.90
17489;DHT22;8861;52.644;4.734;2023-06-10T01:42:27;19.00;99.90
17489;DHT22;8861;52.644;4.734;2023-06-10T01:44:55;19.00;99.90
17489;DHT22;8861;52.644;4.734;2023-06-10T01:47:22;19.00;99.90
17489;DHT22;8861;52.644;4.734;2023-06-10T01:49:51;18.90;99.90
17489;DHT22;8861;52.644;4.734;2023-06-10T01:52:18;18.90;99.90
17489;DHT22;8861;52.644;4.734;2023-06-10T01:54:46;18.90;99.90
17489;DHT22;8861;52.644;4.734;2023-06-10T01:57:13;18.90;99.90
17489;DHT22;8861;52.644;4.734;2023-06-10T01:59:41;18.80;99.90
17489;DHT22;8861;52.644;4.734;2023-06-10T02:02:10;18.90;99.90
17489;DHT22;8861;52.644;4.734;2023-06-10T02:04:37;18.90;99.90
17489;DHT22;8861;52.644;4.734;2023-06-10T02:07:04;18.80;99.90
17489;DHT22;8861;52.644;4.734;2023-06-10T02:09:31;18.80;99.90
17489;DHT22;8861;52.644;4.734;2023-06-10T02:12:02;18.80;99.90
17489;DHT22;8861;52.644;4.734;2023-06-10T02:14:29;18.80;99.90
17489;DHT22;8861;52.644;4.734;2023-06-10T02:16:56;18.70;99.90
17489;DHT22;8861;52.644;4.734;2023-06-10T02:19:23;18.80;99.90
17489;DHT22;8861;52.644;4.734;2023-06-10T02:21:50;18.70;99.90
17489;DHT22;8861;52.644;4.734;2023-06-10T02:24:17;18.70;99.90
17489;DHT22;8861;52.644;4.734;2023-06-10T02:26:44;18.70;99.90
17489;DHT22;8861;52.644;4.734;2023-06-10T02:29:14;18.70;99.90
17489;DHT22;8861;52.644;4.734;2023-06-10T02:31:41;18.70;99.90
17489;DHT22;8861;52.644;4.734;2023-06-10T02:34:08;18.70;99.90
17489;DHT22;8861;52.644;4.734;2023-06-10T02:36:35;18.60;99.90
17489;DHT22;8861;52.644;4.734;2023-06-10T02:39:02;18.70;99.90
17489;DHT22;8861;52.644;4.734;2023-06-10T02:41:30;18.60;99.90
17489;DHT22;8861;52.644;4.734;2023-06-10T02:43:56;18.60;99.90
17489;DHT22;8861;52.644;4.734;2023-06-10T02:46:25;18.60;99.90
17489;DHT22;8861;52.644;4.734;2023-06-10T02:48:54;18.50;99.90
17489;DHT22;8861;52.644;4.734;2023-06-10T02:51:21;18.50;99.90
17489;DHT22;8861;52.644;4.734;2023-06-10T02:53:48;18.50;99.90
17489;DHT22;8861;52.644;4.734;2023-06-10T02:56:16;18.40;99.90
17489;DHT22;8861;52.644;4.734;2023-06-10T02:58:43;18.40;99.90
17489;DHT22;8861;52.644;4.734;2023-06-10T03:01:10;18.40;99.90
17489;DHT22;8861;52.644;4.734;2023-06-10T03:03:38;18.40;99.90
17489;DHT22;8861;52.644;4.734;2023-06-10T03:06:08;18.40;99.90
17489;DHT22;8861;52.644;4.734;2023-06-10T03:08:35;18.40;99.90
17489;DHT22;8861;52.644;4.734;2023-06-10T03:11:03;18.40;99.90
17489;DHT22;8861;52.644;4.734;2023-06-10T03:13:30;18.30;99.90
17489;DHT22;8861;52.644;4.734;2023-06-10T03:15:57;18.30;99.90
17489;DHT22;8861;52.644;4.734;2023-06-10T03:18:26;18.30;99.90
17489;DHT22;8861;52.644;4.734;2023-06-10T03:20:54;18.30;99.90
17489;DHT22;8861;52.644;4.734;2023-06-10T03:23:22;18.30;99.90
17489;DHT22;8861;52.644;4.734;2023-06-10T03:25:49;18.30;99.90
17489;DHT22;8861;52.644;4.734;2023-06-10T03:28:16;18.30;99.90
17489;DHT22;8861;52.644;4.734;2023-06-10T03:30:43;18.20;99.90
17489;DHT22;8861;52.644;4.734;2023-06-10T03:33:10;18.30;99.90
17489;DHT22;8861;52.644;4.734;2023-06-10T03:35:37;18.20;99.90
17489;DHT22;8861;52.644;4.734;2023-06-10T03:38:05;18.20;99.90
17489;DHT22;8861;52.644;4.734;2023-06-10T03:40:32;18.20;99.90
17489;DHT22;8861;52.644;4.734;2023-06-10T03:43:00;18.20;99.90
17489;DHT22;8861;52.644;4.734;2023-06-10T03:45:26;18.20;99.90
17489;DHT22;8861;52.644;4.734;2023-06-10T03:47:54;18.20;99.90
17489;DHT22;8861;52.644;4.734;2023-06-10T03:50:22;18.20;99.90
17489;DHT22;8861;52.644;4.734;2023-06-10T03:52:50;18.20;99.90
17489;DHT22;8861;52.644;4.734;2023-06-10T03:55:19;18.10;99.90
17489;DHT22;8861;52.644;4.734;2023-06-10T03:57:47;18.20;99.90
17489;DHT22;8861;52.644;4.734;2023-06-10T04:00:15;18.20;99.90
17489;DHT22;8861;52.644;4.734;2023-06-10T04:02:43;18.20;99.90
17489;DHT22;8861;52.644;4.734;2023-06-10T04:05:15;18.20;99.90
17489;DHT22;8861;52.644;4.734;2023-06-10T04:07:42;18.20;99.90
17489;DHT22;8861;52.644;4.734;2023-06-10T04:10:10;18.20;99.90
17489;DHT22;8861;52.644;4.734;2023-06-10T04:12:38;18.20;99.90
17489;DHT22;8861;52.644;4.734;2023-06-10T04:15:06;18.20;99.90
17489;DHT22;8861;52.644;4.734;2023-06-10T04:17:34;18.20;99.90
17489;DHT22;8861;52.644;4.734;2023-06-10T04:20:01;18.20;99.90
17489;DHT22;8861;52.644;4.734;2023-06-10T04:22:29;18.20;99.90
17489;DHT22;8861;52.644;4.734;2023-06-10T04:24:56;18.20;99.90
17489;DHT22;8861;52.644;4.734;2023-06-10T04:27:24;18.20;99.90
17489;DHT22;8861;52.644;4.734;2023-06-10T04:29:52;18.30;99.90
17489;DHT22;8861;52.644;4.734;2023-06-10T04:32:20;18.30;99.90
17489;DHT22;8861;52.644;4.734;2023-06-10T04:34:47;18.30;99.90
17489;DHT22;8861;52.644;4.734;2023-06-10T04:37:13;18.30;99.90
17489;DHT22;8861;52.644;4.734;2023-06-10T04:39:40;18.40;99.90
17489;DHT22;8861;52.644;4.734;2023-06-10T04:42:08;18.40;99.90
17489;DHT22;8861;52.644;4.734;2023-06-10T04:44:35;18.40;99.90
17489;DHT22;8861;52.644;4.734;2023-06-10T04:47:03;18.40;99.90
17489;DHT22;8861;52.644;4.734;2023-06-10T04:49:32;18.50;99.90
17489;DHT22;8861;52.644;4.734;2023-06-10T04:51:59;18.50;99.90
17489;DHT22;8861;52.644;4.734;2023-06-10T04:54:26;18.50;99.90
17489;DHT22;8861;52.644;4.734;2023-06-10T04:56:53;18.60;99.90
17489;DHT22;8861;52.644;4.734;2023-06-10T04:59:20;18.60;99.90
17489;DHT22;8861;52.644;4.734;2023-06-10T05:01:47;18.60;99.90
17489;DHT22;8861;52.644;4.734;2023-06-10T05:04:16;18.60;99.90
17489;DHT22;8861;52.644;4.734;2023-06-10T05:06:43;18.70;99.90
17489;DHT22;8861;52.644;4.734;2023-06-10T05:09:10;18.70;99.90
17489;DHT22;8861;52.644;4.734;2023-06-10T05:11:37;18.70;99.90
17489;DHT22;8861;52.644;4.734;2023-06-10T05:14:04;18.80;99.90
17489;DHT22;8861;52.644;4.734;2023-06-10T05:16:31;18.80;99.90
17489;DHT22;8861;52.644;4.734;2023-06-10T05:18:58;18.80;99.90
17489;DHT22;8861;52.644;4.734;2023-06-10T05:21:26;18.80;99.90
17489;DHT22;8861;52.644;4.734;2023-06-10T05:23:53;18.90;99.90
17489;DHT22;8861;52.644;4.734;2023-06-10T05:26:23;18.90;99.90
17489;DHT22;8861;52.644;4.734;2023-06-10T05:28:50;18.90;99.90
17489;DHT22;8861;52.644;4.734;2023-06-10T05:31:18;19.00;99.90
17489;DHT22;8861;52.644;4.734;2023-06-10T05:33:45;19.00;99.90
17489;DHT22;8861;52.644;4.734;2023-06-10T05:36:12;19.00;99.90
17489;DHT22;8861;52.644;4.734;2023-06-10T05:38:40;19.10;99.90
17489;DHT22;8861;52.644;4.734;2023-06-10T05:41:07;19.10;99.90
17489;DHT22;8861;52.644;4.734;2023-06-10T05:43:34;19.10;99.90
17489;DHT22;8861;52.644;4.734;2023-06-10T05:46:01;19.20;99.90
17489;DHT22;8861;52.644;4.734;2023-06-10T05:48:28;19.20;99.90
17489;DHT22;8861;52.644;4.734;2023-06-10T05:50:55;19.20;99.90
17489;DHT22;8861;52.644;4.734;2023-06-10T05:53:22;19.30;99.90
17489;DHT22;8861;52.644;4.734;2023-06-10T05:55:50;19.30;99.90
17489;DHT22;8861;52.644;4.734;2023-06-10T05:58:18;19.40;99.90
17489;DHT22;8861;52.644;4.734;2023-06-10T06:00:45;19.40;99.90
17489;DHT22;8861;52.644;4.734;2023-06-10T06:03:15;19.40;99.90
17489;DHT22;8861;52.644;4.734;2023-06-10T06:05:42;19.50;99.90
17489;DHT22;8861;52.644;4.734;2023-06-10T06:08:10;19.50;99.90
17489;DHT22;8861;52.644;4.734;2023-06-10T06:10:37;19.50;99.90
17489;DHT22;8861;52.644;4.734;2023-06-10T06:13:05;19.60;99.90
17489;DHT22;8861;52.644;4.734;2023-06-10T06:15:32;19.60;99.90
17489;DHT22;8861;52.644;4.734;2023-06-10T06:17:59;19.70;99.90
17489;DHT22;8861;52.644;4.734;2023-06-10T06:20:26;19.70;99.90
17489;DHT22;8861;52.644;4.734;2023-06-10T06:22:53;19.70;99.90
17489;DHT22;8861;52.644;4.734;2023-06-10T06:25:20;19.80;99.90
17489;DHT22;8861;52.644;4.734;2023-06-10T06:27:46;19.80;99.90
17489;DHT22;8861;52.644;4.734;2023-06-10T06:30:15;19.90;99.90
17489;DHT22;8861;52.644;4.734;2023-06-10T06:32:42;19.90;99.90
17489;DHT22;8861;52.644;4.734;2023-06-10T06:35:09;19.90;99.90
17489;DHT22;8861;52.644;4.734;2023-06-10T06:37:36;20.00;99.90
17489;DHT22;8861;52.644;4.734;2023-06-10T06:40:04;20.10;99.90
17489;DHT22;8861;52.644;4.734;2023-06-10T06:42:31;20.10;99.90
17489;DHT22;8861;52.644;4.734;2023-06-10T06:44:58;20.20;99.90
17489;DHT22;8861;52.644;4.734;2023-06-10T06:47:26;20.20;99.90
17489;DHT22;8861;52.644;4.734;2023-06-10T06:49:53;20.30;99.90
17489;DHT22;8861;52.644;4.734;2023-06-10T06:52:20;20.30;99.90
17489;DHT22;8861;52.644;4.734;2023-06-10T06:54:48;20.40;99.90
17489;DHT22;8861;52.644;4.734;2023-06-10T06:57:15;20.40;99.90
17489;DHT22;8861;52.644;4.734;2023-06-10T06:59:42;20.40;99.90
17489;DHT22;8861;52.644;4.734;2023-06-10T07:02:08;20.50;99.90
17489;DHT22;8861;52.644;4.734;2023-06-10T07:04:37;20.50;99.90
17489;DHT22;8861;52.644;4.734;2023-06-10T07:07:07;20.50;99.90
17489;DHT22;8861;52.644;4.734;2023-06-10T07:09:34;20.60;99.90
17489;DHT22;8861;52.644;4.734;2023-06-10T07:12:02;20.60;99.90
17489;DHT22;8861;52.644;4.734;2023-06-10T07:14:29;20.70;99.90
17489;DHT22;8861;52.644;4.734;2023-06-10T07:16:55;20.70;99.90
17489;DHT22;8861;52.644;4.734;2023-06-10T07:19:22;20.70;99.90
17489;DHT22;8861;52.644;4.734;2023-06-10T07:21:51;20.80;99.90
17489;DHT22;8861;52.644;4.734;2023-06-10T07:24:17;20.90;99.90
17489;DHT22;8861;52.644;4.734;2023-06-10T07:26:45;20.90;99.90
17489;DHT22;8861;52.644;4.734;2023-06-10T07:29:12;20.90;99.90
17489;DHT22;8861;52.644;4.734;2023-06-10T07:31:41;21.00;99.90
17489;DHT22;8861;52.644;4.734;2023-06-10T07:34:07;21.10;99.90
17489;DHT22;8861;52.644;4.734;2023-06-10T07:36:34;21.10;99.90
17489;DHT22;8861;52.644;4.734;2023-06-10T07:39:03;21.20;99.90
17489;DHT22;8861;52.644;4.734;2023-06-10T07:41:31;21.20;99.90
17489;DHT22;8861;52.644;4.734;2023-06-10T07:43:58;21.30;99.90
17489;DHT22;8861;52.644;4.734;2023-06-10T07:46:25;21.30;99.90
17489;DHT22;8861;52.644;4.734;2023-06-10T07:48:53;21.40;99.90
17489;DHT22;8861;52.644;4.734;2023-06-10T07:51:21;21.40;99.90
17489;DHT22;8861;52.644;4.734;2023-06-10T07:53:48;21.50;99.90
17489;DHT22;8861;52.644;4.734;2023-06-10T07:56:16;21.60;99.90
17489;DHT22;8861;52.644;4.734;2023-06-10T07:58:43;21.60;99.90
17489;DHT22;8861;52.644;4.734;2023-06-10T08:01:10;21.60;99.90
17489;DHT22;8861;52.644;4.734;2023-06-10T08:03:40;21.70;99.90
17489;DHT22;8861;52.644;4.734;2023-06-10T08:06:06;21.80;99.90
17489;DHT22;8861;52.644;4.734;2023-06-10T08:08:33;21.90;99.90
17489;DHT22;8861;52.644;4.734;2023-06-10T08:11:05;21.90;99.90
17489;DHT22;8861;52.644;4.734;2023-06-10T08:13:34;21.90;99.90
17489;DHT22;8861;52.644;4.734;2023-06-10T08:16:01;22.00;99.90
17489;DHT22;8861;52.644;4.734;2023-06-10T08:18:28;22.00;99.90
17489;DHT22;8861;52.644;4.734;2023-06-10T08:20:55;22.00;99.90
17489;DHT22;8861;52.644;4.734;2023-06-10T08:23:22;22.10;99.90
17489;DHT22;8861;52.644;4.734;2023-06-10T08:25:49;22.20;99.90
17489;DHT22;8861;52.644;4.734;2023-06-10T08:28:17;22.20;99.90
17489;DHT22;8861;52.644;4.734;2023-06-10T08:30:45;22.30;99.90
17489;DHT22;8861;52.644;4.734;2023-06-10T08:33:12;22.30;99.90
17489;DHT22;8861;52.644;4.734;2023-06-10T08:35:39;22.30;99.90
17489;DHT22;8861;52.644;4.734;2023-06-10T08:38:06;22.40;99.90
17489;DHT22;8861;52.644;4.734;2023-06-10T08:40:33;22.50;99.90
17489;DHT22;8861;52.644;4.734;2023-06-10T08:43:04;22.50;99.90
17489;DHT22;8861;52.644;4.734;2023-06-10T08:45:35;22.60;99.90
17489;DHT22;8861;52.644;4.734;2023-06-10T08:48:04;22.60;99.90
17489;DHT22;8861;52.644;4.734;2023-06-10T08:50:34;22.70;99.90
17489;DHT22;8861;52.644;4.734;2023-06-10T08:53:04;22.80;99.90
17489;DHT22;8861;52.644;4.734;2023-06-10T08:55:33;22.90;99.90
17489;DHT22;8861;52.644;4.734;2023-06-10T08:58:00;22.90;99.90
17489;DHT22;8861;52.644;4.734;2023-06-10T09:00:28;23.00;99.90
17489;DHT22;8861;52.644;4.734;2023-06-10T09:02:56;23.10;99.90
17489;DHT22;8861;52.644;4.734;2023-06-10T09:05:27;23.20;99.90
17489;DHT22;8861;52.644;4.734;2023-06-10T09:07:56;23.30;99.90
17489;DHT22;8861;52.644;4.734;2023-06-10T09:10:24;23.30;99.90
17489;DHT22;8861;52.644;4.734;2023-06-10T09:12:51;23.40;99.90
17489;DHT22;8861;52.644;4.734;2023-06-10T09:15:19;23.30;99.90
17489;DHT22;8861;52.644;4.734;2023-06-10T09:17:46;23.40;99.90
17489;DHT22;8861;52.644;4.734;2023-06-10T09:20:13;23.40;99.90
17489;DHT22;8861;52.644;4.734;2023-06-10T09:22:42;23.40;99.90
17489;DHT22;8861;52.644;4.734;2023-06-10T09:25:10;23.50;99.90
17489;DHT22;8861;52.644;4.734;2023-06-10T09:27:45;23.50;99.90
17489;DHT22;8861;52.644;4.734;2023-06-10T09:30:24;23.60;99.90
17489;DHT22;8861;52.644;4.734;2023-06-10T09:32:53;23.70;99.90
17489;DHT22;8861;52.644;4.734;2023-06-10T09:35:22;23.80;99.90
17489;DHT22;8861;52.644;4.734;2023-06-10T09:37:52;23.80;99.90
17489;DHT22;8861;52.644;4.734;2023-06-10T09:40:19;23.90;99.90
17489;DHT22;8861;52.644;4.734;2023-06-10T09:42:47;24.00;99.90
17489;DHT22;8861;52.644;4.734;2023-06-10T09:45:20;24.00;99.90
17489;DHT22;8861;52.644;4.734;2023-06-10T09:47:52;24.00;99.90
17489;DHT22;8861;52.644;4.734;2023-06-10T09:50:20;24.10;99.90
17489;DHT22;8861;52.644;4.734;2023-06-10T09:52:47;24.20;99.90
17489;DHT22;8861;52.644;4.734;2023-06-10T09:55:16;24.20;99.90
17489;DHT22;8861;52.644;4.734;2023-06-10T09:57:44;24.30;99.90
17489;DHT22;8861;52.644;4.734;2023-06-10T10:00:14;24.40;99.90
17489;DHT22;8861;52.644;4.734;2023-06-10T10:02:45;24.40;99.90
17489;DHT22;8861;52.644;4.734;2023-06-10T10:05:14;24.50;99.90
17489;DHT22;8861;52.644;4.734;2023-06-10T10:07:42;24.50;99.90
17489;DHT22;8861;52.644;4.734;2023-06-10T10:10:10;24.70;99.90
17489;DHT22;8861;52.644;4.734;2023-06-10T10:12:44;24.80;99.90
17489;DHT22;8861;52.644;4.734;2023-06-10T10:15:17;24.90;99.90
17489;DHT22;8861;52.644;4.734;2023-06-10T10:17:47;24.90;99.90
17489;DHT22;8861;52.644;4.734;2023-06-10T10:20:20;25.00;99.90
17489;DHT22;8861;52.644;4.734;2023-06-10T10:22:48;25.10;99.90
17489;DHT22;8861;52.644;4.734;2023-06-10T10:25:24;25.10;99.90
17489;DHT22;8861;52.644;4.734;2023-06-10T10:27:57;25.30;99.90
17489;DHT22;8861;52.644;4.734;2023-06-10T10:30:25;25.30;99.90
17489;DHT22;8861;52.644;4.734;2023-06-10T10:32:57;25.30;99.90
17489;DHT22;8861;52.644;4.734;2023-06-10T10:35:25;25.30;99.90
17489;DHT22;8861;52.644;4.734;2023-06-10T10:37:53;25.40;99.90
17489;DHT22;8861;52.644;4.734;2023-06-10T10:40:20;25.40;99.90
17489;DHT22;8861;52.644;4.734;2023-06-10T10:42:48;25.40;99.90
17489;DHT22;8861;52.644;4.734;2023-06-10T10:45:17;25.50;99.90
17489;DHT22;8861;52.644;4.734;2023-06-10T10:47:46;25.60;99.90
17489;DHT22;8861;52.644;4.734;2023-06-10T10:50:14;25.60;99.90
17489;DHT22;8861;52.644;4.734;2023-06-10T10:52:53;25.70;99.90
17489;DHT22;8861;52.644;4.734;2023-06-10T10:55:21;25.90;99.90
17489;DHT22;8861;52.644;4.734;2023-06-10T10:57:56;25.90;99.90
17489;DHT22;8861;52.644;4.734;2023-06-10T11:00:31;26.00;99.90
17489;DHT22;8861;52.644;4.734;2023-06-10T11:03:02;26.10;99.90
17489;DHT22;8861;52.644;4.734;2023-06-10T11:05:36;26.20;99.90
17489;DHT22;8861;52.644;4.734;2023-06-10T11:08:03;26.30;99.90
17489;DHT22;8861;52.644;4.734;2023-06-10T11:10:31;26.40;99.90
17489;DHT22;8861;52.644;4.734;2023-06-10T11:12:59;26.40;99.90
17489;DHT22;8861;52.644;4.734;2023-06-10T11:15:28;26.50;99.90
17489;DHT22;8861;52.644;4.734;2023-06-10T11:18:10;26.60;99.90
17489;DHT22;8861;52.644;4.734;2023-06-10T11:20:58;26.70;99.90
17489;DHT22;8861;52.644;4.734;2023-06-10T11:26:10;27.00;99.90
17489;DHT22;8861;52.644;4.734;2023-06-10T11:28:37;27.00;99.90
17489;DHT22;8861;52.644;4.734;2023-06-10T11:31:04;27.10;99.90
17489;DHT22;8861;52.644;4.734;2023-06-10T11:33:33;27.20;99.90
17489;DHT22;8861;52.644;4.734;2023-06-10T11:36:00;27.30;99.90
17489;DHT22;8861;52.644;4.734;2023-06-10T11:38:28;27.30;99.90
17489;DHT22;8861;52.644;4.734;2023-06-10T11:40:56;27.50;99.90
17489;DHT22;8861;52.644;4.734;2023-06-10T11:43:23;27.50;99.90
17489;DHT22;8861;52.644;4.734;2023-06-10T11:45:54;27.60;99.90
17489;DHT22;8861;52.644;4.734;2023-06-10T11:48:22;27.60;99.90
17489;DHT22;8861;52.644;4.734;2023-06-10T11:50:52;27.60;99.90
17489;DHT22;8861;52.644;4.734;2023-06-10T11:53:19;27.70;99.90
17489;DHT22;8861;52.644;4.734;2023-06-10T11:55:49;27.80;99.90
17489;DHT22;8861;52.644;4.734;2023-06-10T11:58:17;27.90;99.90
17489;DHT22;8861;52.644;4.734;2023-06-10T12:00:46;28.00;99.90
17489;DHT22;8861;52.644;4.734;2023-06-10T12:03:13;28.10;99.90
17489;DHT22;8861;52.644;4.734;2023-06-10T12:05:40;28.10;99.90
17489;DHT22;8861;52.644;4.734;2023-06-10T12:08:12;28.30;99.90
17489;DHT22;8861;52.644;4.734;2023-06-10T12:10:41;28.80;99.90
17489;DHT22;8861;52.644;4.734;2023-06-10T12:13:08;29.70;99.90
17489;DHT22;8861;52.644;4.734;2023-06-10T12:15:35;30.80;99.90
17489;DHT22;8861;52.644;4.734;2023-06-10T12:18:03;32.00;99.90
17489;DHT22;8861;52.644;4.734;2023-06-10T12:20:31;33.30;99.90
17489;DHT22;8861;52.644;4.734;2023-06-10T12:22:59;34.30;99.90
17489;DHT22;8861;52.644;4.734;2023-06-10T12:25:29;35.20;99.90
17489;DHT22;8861;52.644;4.734;2023-06-10T12:27:58;35.90;99.90
17489;DHT22;8861;52.644;4.734;2023-06-10T12:30:26;36.70;99.90
17489;DHT22;8861;52.644;4.734;2023-06-10T12:32:54;37.40;98.60
17489;DHT22;8861;52.644;4.734;2023-06-10T12:35:22;37.70;95.80
17489;DHT22;8861;52.644;4.734;2023-06-10T12:37:58;37.90;93.90
17489;DHT22;8861;52.644;4.734;2023-06-10T12:40:28;37.90;92.80
17489;DHT22;8861;52.644;4.734;2023-06-10T12:42:55;38.20;92.50
17489;DHT22;8861;52.644;4.734;2023-06-10T12:45:29;38.50;91.70
17489;DHT22;8861;52.644;4.734;2023-06-10T12:48:07;38.60;91.10
17489;DHT22;8861;52.644;4.734;2023-06-10T12:50:35;37.90;90.70
17489;DHT22;8861;52.644;4.734;2023-06-10T12:53:03;36.70;90.90
17489;DHT22;8861;52.644;4.734;2023-06-10T12:55:32;35.30;91.70
17489;DHT22;8861;52.644;4.734;2023-06-10T12:58:00;33.90;92.50
17489;DHT22;8861;52.644;4.734;2023-06-10T13:00:27;32.80;94.00
17489;DHT22;8861;52.644;4.734;2023-06-10T13:02:55;31.90;94.60
17489;DHT22;8861;52.644;4.734;2023-06-10T13:05:22;31.10;95.50
17489;DHT22;8861;52.644;4.734;2023-06-10T13:07:49;30.50;96.40
17489;DHT22;8861;52.644;4.734;2023-06-10T13:10:17;30.20;96.70
17489;DHT22;8861;52.644;4.734;2023-06-10T13:12:45;29.80;97.50
17489;DHT22;8861;52.644;4.734;2023-06-10T13:15:13;29.60;98.00
17489;DHT22;8861;52.644;4.734;2023-06-10T13:17:42;29.50;98.40
17489;DHT22;8861;52.644;4.734;2023-06-10T13:20:09;29.40;99.10
17489;DHT22;8861;52.644;4.734;2023-06-10T13:22:36;29.40;99.20
17489;DHT22;8861;52.644;4.734;2023-06-10T13:25:04;29.40;98.90
17489;DHT22;8861;52.644;4.734;2023-06-10T13:27:32;29.40;98.80
17489;DHT22;8861;52.644;4.734;2023-06-10T13:30:01;29.40;98.90
17489;DHT22;8861;52.644;4.734;2023-06-10T13:32:28;29.50;98.40
17489;DHT22;8861;52.644;4.734;2023-06-10T13:34:55;29.70;98.10
17489;DHT22;8861;52.644;4.734;2023-06-10T13:37:22;29.80;98.00
17489;DHT22;8861;52.644;4.734;2023-06-10T13:39:49;29.80;98.10
17489;DHT22;8861;52.644;4.734;2023-06-10T13:42:16;30.00;98.20
17489;DHT22;8861;52.644;4.734;2023-06-10T13:44:43;30.00;98.20
17489;DHT22;8861;52.644;4.734;2023-06-10T13:47:11;30.00;97.80
17489;DHT22;8861;52.644;4.734;2023-06-10T13:49:38;30.00;97.40
17489;DHT22;8861;52.644;4.734;2023-06-10T13:52:07;29.90;97.20
17489;DHT22;8861;52.644;4.734;2023-06-10T13:54:34;29.80;97.60
17489;DHT22;8861;52.644;4.734;2023-06-10T13:57:01;29.90;97.60
17489;DHT22;8861;52.644;4.734;2023-06-10T13:59:28;30.10;97.40
17489;DHT22;8861;52.644;4.734;2023-06-10T14:01:55;30.40;97.50
17489;DHT22;8861;52.644;4.734;2023-06-10T14:04:24;31.00;96.40
17489;DHT22;8861;52.644;4.734;2023-06-10T14:06:51;31.80;95.50
17489;DHT22;8861;52.644;4.734;2023-06-10T14:09:17;32.90;94.30
17489;DHT22;8861;52.644;4.734;2023-06-10T14:11:45;34.10;92.00
17489;DHT22;8861;52.644;4.734;2023-06-10T14:14:13;35.20;90.20
17489;DHT22;8861;52.644;4.734;2023-06-10T14:16:40;36.40;88.70
17489;DHT22;8861;52.644;4.734;2023-06-10T14:19:07;37.70;86.30
17489;DHT22;8861;52.644;4.734;2023-06-10T14:21:36;38.70;83.10
17489;DHT22;8861;52.644;4.734;2023-06-10T14:24:03;38.80;81.10
17489;DHT22;8861;52.644;4.734;2023-06-10T14:26:30;38.40;80.20
17489;DHT22;8861;52.644;4.734;2023-06-10T14:28:58;37.70;80.00
17489;DHT22;8861;52.644;4.734;2023-06-10T14:31:25;37.00;78.70
17489;DHT22;8861;52.644;4.734;2023-06-10T14:33:52;37.00;79.50
17489;DHT22;8861;52.644;4.734;2023-06-10T14:36:19;37.80;77.00
17489;DHT22;8861;52.644;4.734;2023-06-10T14:38:47;38.80;74.50
17489;DHT22;8861;52.644;4.734;2023-06-10T14:41:14;40.00;71.10
17489;DHT22;8861;52.644;4.734;2023-06-10T14:43:41;40.70;69.40
17489;DHT22;8861;52.644;4.734;2023-06-10T14:46:08;41.50;67.30
17489;DHT22;8861;52.644;4.734;2023-06-10T14:48:35;42.30;64.80
17489;DHT22;8861;52.644;4.734;2023-06-10T14:51:02;42.70;63.80
17489;DHT22;8861;52.644;4.734;2023-06-10T14:53:29;42.90;63.00
17489;DHT22;8861;52.644;4.734;2023-06-10T14:55:57;43.10;60.80
17489;DHT22;8861;52.644;4.734;2023-06-10T14:58:24;43.00;60.70
17489;DHT22;8861;52.644;4.734;2023-06-10T15:00:51;43.00;60.80
17489;DHT22;8861;52.644;4.734;2023-06-10T15:03:18;42.70;59.70
17489;DHT22;8861;52.644;4.734;2023-06-10T15:05:49;42.10;59.10
17489;DHT22;8861;52.644;4.734;2023-06-10T15:08:16;41.20;58.70
17489;DHT22;8861;52.644;4.734;2023-06-10T15:10:46;40.40;59.20
17489;DHT22;8861;52.644;4.734;2023-06-10T15:13:15;39.50;59.30
17489;DHT22;8861;52.644;4.734;2023-06-10T15:15:42;38.70;59.60
17489;DHT22;8861;52.644;4.734;2023-06-10T15:18:09;38.00;60.00
17489;DHT22;8861;52.644;4.734;2023-06-10T15:20:36;37.30;61.70
17489;DHT22;8861;52.644;4.734;2023-06-10T15:23:02;37.00;63.10
17489;DHT22;8861;52.644;4.734;2023-06-10T15:25:29;36.90;63.90
17489;DHT22;8861;52.644;4.734;2023-06-10T15:27:56;37.00;64.40
17489;DHT22;8861;52.644;4.734;2023-06-10T15:30:25;37.00;64.30
17489;DHT22;8861;52.644;4.734;2023-06-10T15:32:52;36.70;63.60
17489;DHT22;8861;52.644;4.734;2023-06-10T15:35:19;36.20;63.50
17489;DHT22;8861;52.644;4.734;2023-06-10T15:37:46;35.60;63.80
17489;DHT22;8861;52.644;4.734;2023-06-10T15:40:13;35.00;65.20
17489;DHT22;8861;52.644;4.734;2023-06-10T15:42:40;34.50;65.90
17489;DHT22;8861;52.644;4.734;2023-06-10T15:45:07;34.20;66.60
17489;DHT22;8861;52.644;4.734;2023-06-10T15:47:35;33.90;67.10
17489;DHT22;8861;52.644;4.734;2023-06-10T15:50:03;33.60;68.40
17489;DHT22;8861;52.644;4.734;2023-06-10T15:52:30;33.30;68.80